createdAt,value
2018-08-30T00:08:26.318Z,19.64
2018-08-30T00:11:11.013Z,19.63
2018-08-30T00:13:50.324Z,19.64
2018-08-30T00:16:40.505Z,19.77
2018-08-30T01:14:38.935Z,19.45
2018-08-30T01:17:16.908Z,19.42
2018-08-30T01:19:58.752Z,19.43
2018-08-30T01:22:37.008Z,19.38
2018-08-30T01:25:09.671Z,19.33
2018-08-30T01:27:58.631Z,19.25
2018-08-30T01:30:33.762Z,19.25
2018-08-30T01:33:22.539Z,19.11
2018-08-30T01:36:05.285Z,19.03
2018-08-30T01:41:43.307Z,18.96
2018-08-30T01:44:25.728Z,18.98
2018-08-30T01:47:00.386Z,18.98
2018-08-30T01:52:33.793Z,18.82
2018-08-30T02:00:51.760Z,18.71
2018-08-30T02:03:23.861Z,18.78
2018-08-30T02:05:56.482Z,18.79
2018-08-30T02:08:27.860Z,18.86
2018-08-30T02:10:58.507Z,18.69
2018-08-30T02:13:30.720Z,18.75
2018-08-30T02:16:01.037Z,18.81
2018-08-30T02:18:31.672Z,18.78
2018-08-30T02:21:03.983Z,18.67
2018-08-30T02:23:34.172Z,18.69
2018-08-30T02:26:04.219Z,18.70
2018-08-30T02:28:35.176Z,18.67
2018-08-30T02:31:07.122Z,18.51
2018-08-30T02:33:37.192Z,18.52
2018-08-30T02:36:10.290Z,18.43
2018-08-30T02:38:40.419Z,18.40
2018-08-30T02:41:11.043Z,18.36
2018-08-30T02:43:42.152Z,18.37
2018-08-30T02:46:12.403Z,18.33
2018-08-30T02:48:43.250Z,18.24
2018-08-30T02:51:14.798Z,18.22
2018-08-30T02:53:48.193Z,18.19
2018-08-30T02:56:18.512Z,18.15
2018-08-30T02:58:53.144Z,18.16
2018-08-30T03:01:25.559Z,18.10
2018-08-30T03:03:55.425Z,18.14
2018-08-30T03:06:34.844Z,18.15
2018-08-30T03:09:09.750Z,18.16
2018-08-30T03:11:41.100Z,18.14
2018-08-30T03:14:14.750Z,18.17
2018-08-30T03:16:45.752Z,18.19
2018-08-30T03:19:18.779Z,18.18
2018-08-30T03:21:50.228Z,18.21
2018-08-30T03:24:21.614Z,18.17
2018-08-30T03:28:05.673Z,18.15
2018-08-30T03:30:52.107Z,18.15
2018-08-30T03:33:33.726Z,18.14
2018-08-30T03:36:08.391Z,18.15
2018-08-30T03:39:08.705Z,18.13
2018-08-30T03:41:50.070Z,18.18
2018-08-30T03:44:32.687Z,18.14
2018-08-30T03:47:20.713Z,18.11
2018-08-30T03:55:47.677Z,18.11
2018-08-30T03:58:24.889Z,18.12
2018-08-30T04:01:28.942Z,18.15
2018-08-30T04:04:30.151Z,18.18
2018-08-30T04:07:06.074Z,18.21
2018-08-30T04:09:49.109Z,18.22
2018-08-30T04:25:57.247Z,18.14
2018-08-30T04:28:30.695Z,18.14
2018-08-30T04:31:01.277Z,18.12
2018-08-30T04:33:39.852Z,18.12
2018-08-30T04:36:10.349Z,18.14
2018-08-30T04:38:40.952Z,18.13
2018-08-30T04:41:14.152Z,18.11
2018-08-30T04:43:47.257Z,18.14
2018-08-30T04:46:21.074Z,18.18
2018-08-30T04:57:56.303Z,18.12
2018-08-30T05:00:43.976Z,18.06
2018-08-30T05:03:19.566Z,18.10
2018-08-30T05:05:54.981Z,18.09
2018-08-30T05:08:27.668Z,18.10
2018-08-30T05:11:00.116Z,18.04
2018-08-30T05:13:46.333Z,18.10
2018-08-30T05:16:22.137Z,18.12
2018-08-30T05:21:57.355Z,18.17
2018-08-30T05:24:33.920Z,18.19
2018-08-30T05:27:07.502Z,18.18
2018-08-30T05:29:37.985Z,18.14
2018-08-30T05:32:10.307Z,18.14
2018-08-30T05:34:41.098Z,18.17
2018-08-30T05:37:13.008Z,18.16
2018-08-30T05:39:45.453Z,18.14
2018-08-30T05:42:18.041Z,18.14
2018-08-30T05:44:53.408Z,18.21
2018-08-30T05:47:38.731Z,18.20
2018-08-30T05:50:13.400Z,18.14
2018-08-30T05:52:56.752Z,18.14
2018-08-30T05:55:42.579Z,18.17
2018-08-30T06:01:29.159Z,18.14
2018-08-30T06:04:26.414Z,18.18
2018-08-30T06:10:04.293Z,18.15
2018-08-30T06:15:33.909Z,18.19
2018-08-30T06:18:19.537Z,18.18
2018-08-30T06:33:22.661Z,18.18
2018-08-30T06:36:05.374Z,18.16
2018-08-30T06:41:53.254Z,18.16
2018-08-30T07:15:10.180Z,17.96
2018-08-30T07:17:46.114Z,17.93
2018-08-30T07:20:17.155Z,17.94
2018-08-30T07:25:54.329Z,17.85
2018-08-30T07:28:27.175Z,17.89
2018-08-30T07:30:57.693Z,17.92
2018-08-30T07:33:27.559Z,17.91
2018-08-30T07:35:57.957Z,17.93
2018-08-30T07:38:31.678Z,17.92
2018-08-30T07:41:05.073Z,17.98
2018-08-30T07:43:36.258Z,18.05
2018-08-30T07:46:07.308Z,18.16
2018-08-30T07:48:39.322Z,18.18
2018-08-30T07:51:15.511Z,18.23
2018-08-30T07:53:46.021Z,18.29
2018-08-30T07:56:19.440Z,18.35
2018-08-30T07:58:49.509Z,18.38
2018-08-30T08:01:19.759Z,18.49
2018-08-30T08:03:52.191Z,18.49
2018-08-30T08:06:22.476Z,18.64
2018-08-30T08:08:52.693Z,18.67
2018-08-30T08:11:23.472Z,18.66
2018-08-30T08:13:54.389Z,18.52
2018-08-30T08:16:25.249Z,18.47
2018-08-30T08:18:56.022Z,18.50
2018-08-30T08:21:26.302Z,18.52
2018-08-30T08:23:56.528Z,18.47
2018-08-30T08:26:26.812Z,18.48
2018-08-30T08:28:56.916Z,18.42
2018-08-30T08:31:31.513Z,18.35
2018-08-30T08:34:01.902Z,18.33
2018-08-30T08:36:33.846Z,18.29
2018-08-30T08:39:05.183Z,18.36
2018-08-30T08:41:35.408Z,18.44
2018-08-30T08:44:06.547Z,18.50
2018-08-30T08:46:37.872Z,18.45
2018-08-30T08:49:09.012Z,18.48
2018-08-30T08:51:39.655Z,18.36
2018-08-30T08:54:10.032Z,18.24
2018-08-30T08:56:40.451Z,18.34
2018-08-30T08:59:10.835Z,18.37
2018-08-30T09:01:41.378Z,18.37
2018-08-30T09:04:12.992Z,18.37
2018-08-30T09:06:43.483Z,18.35
2018-08-30T09:09:14.392Z,18.29
2018-08-30T09:11:45.076Z,18.27
2018-08-30T09:14:15.383Z,18.20
2018-08-30T09:16:45.859Z,18.25
2018-08-30T09:19:17.908Z,18.21
2018-08-30T09:21:48.236Z,18.14
2018-08-30T09:24:19.247Z,18.24
2018-08-30T09:26:49.375Z,18.28
2018-08-30T09:29:20.176Z,18.28
2018-08-30T09:31:51.598Z,18.20
2018-08-30T09:34:24.213Z,18.17
2018-08-30T09:36:55.211Z,18.06
2018-08-30T09:39:25.378Z,17.91
2018-08-30T09:41:55.486Z,17.87
2018-08-30T09:44:26.095Z,17.85
2018-08-30T09:46:56.346Z,17.69
2018-08-30T09:49:26.649Z,17.68
2018-08-30T09:51:58.481Z,17.70
2018-08-30T09:54:31.067Z,17.75
2018-08-30T09:57:03.591Z,17.75
2018-08-30T09:59:35.609Z,17.64
2018-08-30T10:02:11.041Z,17.70
2018-08-30T10:04:44.270Z,17.73
2018-08-30T10:07:18.740Z,17.77
2018-08-30T10:09:54.092Z,17.82
2018-08-30T10:12:28.595Z,17.82
2018-08-30T10:15:03.596Z,17.77
2018-08-30T10:17:34.817Z,17.68
2018-08-30T10:20:06.307Z,17.59
2018-08-30T10:22:37.753Z,17.53
2018-08-30T10:25:12.689Z,17.47
2018-08-30T10:27:44.177Z,17.27
2018-08-30T10:30:16.111Z,17.35
2018-08-30T10:32:48.843Z,17.35
2018-08-30T10:35:20.074Z,17.39
2018-08-30T10:37:51.398Z,17.35
2018-08-30T10:40:23.367Z,17.40
2018-08-30T10:42:54.726Z,17.34
2018-08-30T10:45:29.092Z,17.31
2018-08-30T10:48:00.558Z,17.22
2018-08-30T10:50:32.299Z,17.16
2018-08-30T10:53:06.487Z,17.19
2018-08-30T10:55:38.871Z,17.20
2018-08-30T10:58:10.094Z,17.20
2018-08-30T11:00:43.580Z,17.19
2018-08-30T11:03:16.014Z,17.09
2018-08-30T11:05:54.329Z,17.07
2018-08-30T11:11:09.663Z,16.90
2018-08-30T11:13:42.199Z,16.91
2018-08-30T11:16:15.364Z,16.91
2018-08-30T11:18:47.936Z,16.76
2018-08-30T11:21:19.027Z,16.77
2018-08-30T11:23:49.596Z,16.82
2018-08-30T11:26:19.918Z,16.75
2018-08-30T11:28:51.813Z,16.76
2018-08-30T11:31:22.786Z,16.83
2018-08-30T11:33:56.203Z,16.73
2018-08-30T11:36:26.525Z,16.74
2018-08-30T11:38:59.937Z,16.74
2018-08-30T11:41:31.057Z,16.76
2018-08-30T11:44:01.926Z,16.76
2018-08-30T11:46:34.514Z,16.63
2018-08-30T11:49:07.591Z,16.58
2018-08-30T11:51:38.400Z,16.56
2018-08-30T11:54:09.835Z,16.60
2018-08-30T11:56:43.249Z,16.54
2018-08-30T11:59:15.075Z,16.56
2018-08-30T12:01:46.514Z,16.50
2018-08-30T12:04:20.955Z,16.51
2018-08-30T12:06:52.069Z,16.50
2018-08-30T12:09:23.557Z,16.50
2018-08-30T12:12:00.303Z,16.39
2018-08-30T12:14:36.647Z,16.44
2018-08-30T12:17:06.899Z,16.46
2018-08-30T12:19:36.956Z,16.44
2018-08-30T12:22:07.595Z,16.48
2018-08-30T12:24:38.017Z,16.46
2018-08-30T12:27:08.162Z,16.49
2018-08-30T12:29:38.465Z,16.47
2018-08-30T12:32:08.820Z,16.48
2018-08-30T12:34:42.971Z,16.50
2018-08-30T12:37:13.859Z,16.55
2018-08-30T12:39:44.254Z,16.54
2018-08-30T12:42:14.513Z,16.53
2018-08-30T12:44:44.265Z,16.60
2018-08-30T12:47:15.188Z,16.49
2018-08-30T12:49:45.308Z,16.54
2018-08-30T12:52:15.414Z,16.50
2018-08-30T12:54:45.652Z,16.50
2018-08-30T12:57:15.749Z,16.52
2018-08-30T12:59:45.909Z,16.53
2018-08-30T13:02:16.780Z,16.53
2018-08-30T13:04:47.883Z,16.54
2018-08-30T13:07:18.477Z,16.57
2018-08-30T13:09:50.509Z,16.48
2018-08-30T13:12:20.702Z,16.48
2018-08-30T13:14:51.340Z,16.45
2018-08-30T13:17:21.851Z,16.48
2018-08-30T13:19:55.263Z,16.49
2018-08-30T13:22:26.117Z,16.48
2018-08-30T13:24:56.395Z,16.50
2018-08-30T13:27:26.705Z,16.50
2018-08-30T13:29:57.221Z,16.43
2018-08-30T13:32:27.559Z,16.37
2018-08-30T13:34:59.035Z,16.43
2018-08-30T13:37:29.853Z,16.41
2018-08-30T13:40:00.016Z,16.45
2018-08-30T13:42:30.520Z,16.39
2018-08-30T13:45:00.662Z,16.39
2018-08-30T13:47:31.911Z,16.37
2018-08-30T13:50:06.443Z,16.34
2018-08-30T13:52:36.447Z,16.28
2018-08-30T13:55:10.068Z,16.29
2018-08-30T13:57:40.482Z,16.25
2018-08-30T14:00:13.261Z,16.25
2018-08-30T14:02:43.402Z,16.28
2018-08-30T14:05:13.441Z,16.32
2018-08-30T14:07:44.311Z,16.24
2018-08-30T14:10:15.001Z,16.26
2018-08-30T14:12:45.039Z,16.13
2018-08-30T14:15:16.506Z,16.16
2018-08-30T14:17:47.323Z,16.17
2018-08-30T14:20:19.025Z,16.13
2018-08-30T14:22:49.978Z,16.19
2018-08-30T14:25:20.070Z,16.14
2018-08-30T14:27:51.975Z,16.07
2018-08-30T14:30:22.544Z,16.09
2018-08-30T14:32:52.865Z,16.05
2018-08-30T14:35:24.562Z,16.09
2018-08-30T14:37:57.137Z,16.11
2018-08-30T14:40:27.808Z,16.06
2018-08-30T14:42:58.545Z,16.06
2018-08-30T14:45:28.807Z,16.14
2018-08-30T14:48:00.238Z,16.16
2018-08-30T14:50:31.694Z,16.12
2018-08-30T14:53:02.371Z,16.07
2018-08-30T14:55:35.004Z,16.04
2018-08-30T14:58:07.173Z,16.10
2018-08-30T15:00:39.104Z,16.12
2018-08-30T15:03:10.072Z,16.15
2018-08-30T15:08:32.661Z,16.08
2018-08-30T15:11:03.441Z,16.08
2018-08-30T15:13:39.550Z,16.08
2018-08-30T15:19:21.812Z,16.16
2018-08-30T15:21:54.443Z,16.10
2018-08-30T15:24:25.605Z,16.08
2018-08-30T15:26:58.049Z,16.14
2018-08-30T15:32:16.744Z,16.07
2018-08-30T15:34:50.216Z,15.99
2018-08-30T15:37:32.227Z,16.02
2018-08-30T15:40:04.832Z,15.98
2018-08-30T15:42:38.998Z,16.02
2018-08-30T15:45:12.613Z,16.07
2018-08-30T15:47:48.374Z,16.16
2018-08-30T15:50:21.373Z,16.14
2018-08-30T15:52:52.343Z,16.15
2018-08-30T15:55:26.649Z,16.19
2018-08-30T15:57:58.503Z,16.16
2018-08-30T16:00:42.673Z,16.17
2018-08-30T16:03:29.150Z,16.15
2018-08-30T16:06:04.704Z,16.23
2018-08-30T16:08:38.965Z,16.18
2018-08-30T16:11:12.994Z,16.22
2018-08-30T16:13:43.986Z,16.25
2018-08-30T16:16:20.114Z,16.20
2018-08-30T16:18:52.627Z,16.14
2018-08-30T16:21:24.308Z,16.11
2018-08-30T16:23:56.060Z,16.15
2018-08-30T16:26:29.638Z,16.08
2018-08-30T16:29:05.706Z,16.26
2018-08-30T16:31:38.686Z,16.29
2018-08-30T16:34:12.057Z,16.33
2018-08-30T16:36:47.920Z,16.33
2018-08-30T16:39:21.139Z,16.32
2018-08-30T16:41:53.784Z,16.35
2018-08-30T16:44:26.597Z,16.36
2018-08-30T16:47:07.885Z,16.41
2018-08-30T16:49:39.623Z,16.43
2018-08-30T16:52:11.626Z,16.49
2018-08-30T16:54:42.858Z,16.45
2018-08-30T16:57:16.959Z,16.38
2018-08-30T16:59:59.080Z,16.42
2018-08-30T17:02:40.566Z,16.50
2018-08-30T17:08:32.840Z,16.45
2018-08-30T17:11:18.330Z,16.41
2018-08-30T17:14:18.190Z,16.47
2018-08-30T17:16:49.844Z,16.62
2018-08-30T17:19:28.608Z,16.53
2018-08-30T17:22:05.578Z,16.57
2018-08-30T17:24:36.542Z,16.53
2018-08-30T17:27:14.378Z,16.50
2018-08-30T17:29:59.071Z,16.52
2018-08-30T17:32:33.942Z,16.55
2018-08-30T17:35:09.953Z,16.64
2018-08-30T17:37:42.933Z,16.62
2018-08-30T17:40:14.579Z,16.59
2018-08-30T17:42:55.425Z,16.66
2018-08-30T17:45:29.648Z,16.67
2018-08-30T17:48:04.089Z,16.66
2018-08-30T17:50:36.953Z,16.73
2018-08-30T17:53:10.836Z,16.73
2018-08-30T17:55:43.025Z,16.74
2018-08-30T18:01:27.009Z,16.69
2018-08-30T18:04:16.539Z,16.63
2018-08-30T18:09:48.897Z,16.53
2018-08-30T18:15:16.773Z,16.50
2018-08-30T18:17:51.304Z,16.44
2018-08-30T18:20:23.447Z,16.32
2018-08-30T18:23:11.490Z,16.31
2018-08-30T18:25:43.868Z,16.29
2018-08-30T18:28:22.599Z,16.23
2018-08-30T18:30:55.219Z,16.21
2018-08-30T18:33:28.378Z,16.16
2018-08-30T18:36:09.336Z,16.09
2018-08-30T18:38:45.140Z,15.96
2018-08-30T18:41:19.250Z,15.98
2018-08-30T18:43:50.031Z,15.98
2018-08-30T18:46:24.808Z,15.88
2018-08-30T18:48:58.723Z,15.82
2018-08-30T18:51:30.582Z,15.81
2018-08-30T18:54:01.318Z,15.71
2018-08-30T18:56:38.597Z,15.69
2018-08-30T18:59:12.206Z,15.58
2018-08-30T19:01:51.637Z,15.54
2018-08-30T19:04:35.611Z,15.55
2018-08-30T19:09:54.799Z,15.53
2018-08-30T19:15:12.533Z,15.49
2018-08-30T19:17:52.748Z,15.50
2018-08-30T19:20:35.246Z,15.39
2018-08-30T19:23:07.822Z,15.34
2018-08-30T19:28:24.300Z,15.29
2018-08-30T19:31:02.902Z,15.25
2018-08-30T19:33:38.694Z,15.33
2018-08-30T19:36:20.091Z,15.26
2018-08-30T19:39:17.310Z,15.16
2018-08-30T19:42:00.086Z,15.13
2018-08-30T19:44:33.439Z,15.04
2018-08-30T19:47:04.122Z,15.06
2018-08-30T19:49:35.447Z,15.11
2018-08-30T19:52:06.321Z,14.99
2018-08-30T19:54:37.055Z,14.97
2018-08-30T19:57:08.289Z,14.94
2018-08-30T19:59:38.749Z,14.93
2018-08-30T20:02:08.907Z,14.98
2018-08-30T20:04:39.228Z,14.94
2018-08-30T20:07:10.418Z,14.91
2018-08-30T20:09:42.551Z,14.85
2018-08-30T20:12:12.886Z,14.82
2018-08-30T20:14:43.213Z,14.81
2018-08-30T20:17:14.241Z,14.76
2018-08-30T20:19:52.552Z,14.74
2018-08-30T20:28:06.997Z,14.69
2018-08-30T20:30:38.490Z,14.70
2018-08-30T20:33:09.055Z,14.67
2018-08-30T20:35:40.611Z,14.70
2018-08-30T20:38:17.206Z,14.64
2018-08-30T20:40:49.213Z,14.72
2018-08-30T20:46:13.006Z,14.59
2018-08-30T20:48:48.134Z,14.61
2018-08-30T20:51:20.559Z,14.65
2018-08-30T20:53:55.049Z,14.58
2018-08-30T20:56:29.080Z,14.67
2018-08-30T20:59:00.014Z,14.63
2018-08-30T21:01:30.342Z,14.55
2018-08-30T21:04:03.745Z,14.59
2018-08-30T21:06:37.161Z,14.57
2018-08-30T21:09:13.089Z,14.51
2018-08-30T21:11:43.514Z,14.68
2018-08-30T21:14:13.901Z,14.60
2018-08-30T21:16:45.239Z,14.54
2018-08-30T21:19:15.924Z,14.56
2018-08-30T21:21:46.754Z,14.41
2018-08-30T21:34:07.880Z,14.44
2018-08-30T21:36:57.724Z,14.38
2018-08-30T21:39:30.420Z,14.34
2018-08-30T21:42:05.092Z,14.36
2018-08-30T21:50:40.515Z,14.09
2018-08-30T21:53:14.350Z,14.11
2018-08-30T21:55:47.708Z,14.11
2018-08-30T21:58:17.978Z,14.01
2018-08-30T22:00:48.162Z,13.97
2018-08-30T22:03:18.285Z,14.02
2018-08-30T22:05:48.501Z,13.90
2018-08-30T22:08:18.823Z,13.92
2018-08-30T22:10:49.118Z,13.83
2018-08-30T22:13:19.310Z,13.94
2018-08-30T22:15:52.253Z,13.89
2018-08-30T22:18:22.409Z,13.81
2018-08-30T22:20:56.793Z,13.97
2018-08-30T22:23:28.138Z,13.95
2018-08-30T22:25:58.770Z,13.94
2018-08-30T22:28:30.695Z,13.86
2018-08-30T22:31:00.980Z,13.82
2018-08-30T22:33:31.192Z,13.95
2018-08-30T22:36:04.300Z,13.91
2018-08-30T22:38:38.773Z,13.86
2018-08-30T22:41:11.285Z,13.89
2018-08-30T22:43:44.888Z,13.83
2018-08-30T22:46:19.507Z,13.79
2018-08-30T22:50:08.572Z,13.88
2018-08-30T22:52:42.998Z,13.80
2018-08-30T22:55:13.938Z,13.80
2018-08-30T22:57:46.391Z,13.77
2018-08-30T23:00:16.835Z,13.68
2018-08-30T23:02:47.205Z,13.61
2018-08-30T23:05:17.281Z,13.67
2018-08-30T23:07:49.658Z,13.62
2018-08-30T23:10:21.314Z,13.67
2018-08-30T23:12:52.118Z,13.52
2018-08-30T23:15:22.570Z,13.48
2018-08-30T23:17:53.713Z,13.46
2018-08-30T23:20:24.351Z,13.44
2018-08-30T23:22:57.236Z,13.41
2018-08-30T23:25:30.433Z,13.37
2018-08-30T23:28:00.751Z,13.42
2018-08-30T23:30:31.132Z,13.47
2018-08-30T23:33:03.669Z,13.48
2018-08-30T23:35:34.160Z,13.58
2018-08-30T23:38:04.943Z,13.40
2018-08-30T23:40:35.793Z,13.32
2018-08-30T23:43:06.108Z,13.32
2018-08-30T23:45:38.366Z,13.38
2018-08-30T23:48:11.199Z,13.20
2018-08-30T23:50:42.889Z,13.35
2018-08-30T23:53:14.459Z,13.30
2018-08-30T23:55:48.087Z,13.26
2018-08-30T23:58:35.339Z,13.20
